Time;durP1;ratioP1;P1;durP2;ratioP2;P2;SDS_P1;SDS_P2;PMS_P1;PMS_P2;Temp;Humidity;BMP_temperature;BMP_pressure;BME280_temperature;BME280_humidity;BME280_pressure;Samples;Min_cycle;Max_cycle;Signal;HPM_P1;HPM_P2
2022/11/21 00:00:45;;;;;;;;;;;;;;;21.36;45.41;100554.50;7253599;19;154195;-60
2022/11/21 00:03:11;;;;;;;;;;;;;;;21.38;45.57;100549.41;7254255;19;154496;-59
2022/11/21 00:05:40;;;;;;;;;;;;;;;21.40;45.36;100550.72;7253630;19;152603;-59
2022/11/21 00:08:07;;;;;;;;;;;;;;;21.40;45.01;100545.09;7247223;19;155346;-59
2022/11/21 00:10:34;;;;;;;;;;;;;;;21.44;45.21;100545.31;7252803;19;154686;-60
2022/11/21 00:13:01;;;;;;;;;;;;;;;21.43;45.05;100522.00;7252680;19;155075;-60
2022/11/21 00:15:28;;;;;;;;;;;;;;;21.45;45.27;100513.22;7261943;19;153672;-59
2022/11/21 00:17:54;;;;;;;;;;;;;;;21.46;45.40;100498.84;7252781;19;154358;-59
2022/11/21 00:20:21;;;;;;;;;;;;;;;21.48;45.70;100496.56;7253098;19;153684;-59
2022/11/21 00:22:54;;;;;;;;;;;;;;;21.51;45.68;100509.09;7250264;19;154634;-59
2022/11/21 00:25:20;;;;;;;;;;;;;;;21.50;45.64;100513.91;7254233;19;154545;-59
2022/11/21 00:27:47;;;;;;;;;;;;;;;21.52;45.47;100522.84;7251054;19;153950;-59
2022/11/21 00:30:14;;;;;;;;;;;;;;;21.53;45.47;100518.06;7255448;19;153413;-59
2022/11/21 00:32:41;;;;;;;;;;;;;;;21.53;45.24;100516.06;7252650;19;154809;-59
2022/11/21 00:35:09;;;;;;;;;;;;;;;21.55;45.68;100521.34;7252371;19;154196;-60
2022/11/21 00:37:35;;;;;;;;;;;;;;;21.55;45.40;100515.72;7256994;19;153933;-59
2022/11/21 00:40:02;;;;;;;;;;;;;;;21.55;45.19;100527.81;7252446;19;153698;-59
2022/11/21 00:42:29;;;;;;;;;;;;;;;21.55;45.77;100533.44;7251936;19;154083;-60
2022/11/21 00:44:55;;;;;;;;;;;;;;;21.54;45.28;100525.31;7253623;19;153715;-60
2022/11/21 00:47:22;;;;;;;;;;;;;;;21.54;45.72;100516.88;7252728;19;153978;-60
2022/11/21 00:49:49;;;;;;;;;;;;;;;21.53;45.84;100510.44;7253850;19;154147;-60
2022/11/21 00:52:15;;;;;;;;;;;;;;;21.54;45.87;100514.06;7250618;19;154618;-59
2022/11/21 00:54:42;;;;;;;;;;;;;;;21.53;45.33;100512.44;7250837;19;155891;-59
2022/11/21 00:57:09;;;;;;;;;;;;;;;21.52;45.31;100510.78;7260309;19;153735;-59
2022/11/21 00:59:36;;;;;;;;;;;;;;;21.52;45.64;100507.97;7251678;19;153771;-60
2022/11/21 01:02:04;;;;;;;;;;;;;;;21.49;45.24;100501.00;7251910;19;152809;-59
2022/11/21 01:04:31;;;;;;;;;;;;;;;21.49;45.30;100502.97;7251476;19;155746;-59
2022/11/21 01:06:58;;;;;;;;;;;;;;;21.48;45.44;100499.38;7248752;19;153447;-59
2022/11/21 01:09:25;;;;;;;;;;;;;;;21.46;45.59;100493.22;7251553;19;154909;-60
2022/11/21 01:11:52;;;;;;;;;;;;;;;21.47;45.45;100508.09;7252484;19;153619;-60
2022/11/21 01:14:18;;;;;;;;;;;;;;;21.47;45.34;100500.50;7251373;19;156134;-59
2022/11/21 01:16:45;;;;;;;;;;;;;;;21.47;45.29;100496.88;7249089;19;152119;-59
2022/11/21 01:19:12;;;;;;;;;;;;;;;21.46;45.52;100498.84;7257872;19;155425;-59
2022/11/21 01:21:38;;;;;;;;;;;;;;;21.43;45.43;100484.63;7249969;19;153706;-60
2022/11/21 01:24:05;;;;;;;;;;;;;;;21.41;45.06;100484.09;7250606;19;154101;-60
2022/11/21 01:26:32;;;;;;;;;;;;;;;21.40;45.29;100474.84;7251052;19;154590;-59
2022/11/21 01:28:58;;;;;;;;;;;;;;;21.36;45.23;100467.38;7251738;19;154031;-59
2022/11/21 01:31:27;;;;;;;;;;;;;;;21.30;45.62;100466.72;7253086;19;153632;-59
2022/11/21 01:33:55;;;;;;;;;;;;;;;21.27;45.43;100461.75;7249453;19;154451;-60
2022/11/21 01:36:23;;;;;;;;;;;;;;;21.23;45.71;100461.56;7251914;19;152580;-59
2022/11/21 01:38:51;;;;;;;;;;;;;;;21.19;45.81;100456.94;7256080;19;154164;-60
2022/11/21 01:41:19;;;;;;;;;;;;;;;21.16;46.03;100444.38;7265336;19;154111;-59
2022/11/21 01:43:49;;;;;;;;;;;;;;;21.13;46.21;100436.56;7256911;19;153254;-59
2022/11/21 01:46:17;;;;;;;;;;;;;;;21.12;46.15;100445.31;7257608;19;153369;-62
2022/11/21 01:48:44;;;;;;;;;;;;;;;21.08;46.03;100447.91;7257041;19;152413;-59
2022/11/21 01:51:14;;;;;;;;;;;;;;;21.05;45.98;100442.97;7258760;19;155351;-59
2022/11/21 01:53:43;;;;;;;;;;;;;;;21.03;46.25;100434.00;7252830;19;156688;-60
2022/11/21 01:56:10;;;;;;;;;;;;;;;21.04;46.11;100429.22;7257770;19;152434;-59
2022/11/21 01:58:38;;;;;;;;;;;;;;;21.02;46.05;100431.56;7257164;19;153760;-59
2022/11/21 02:01:04;;;;;;;;;;;;;;;21.00;46.36;100423.44;7257827;19;157015;-59
2022/11/21 02:03:33;;;;;;;;;;;;;;;20.96;46.33;100427.22;7267954;19;153427;-60
2022/11/21 02:06:00;;;;;;;;;;;;;;;20.95;46.28;100423.59;7258366;19;153379;-60
2022/11/21 02:08:27;;;;;;;;;;;;;;;20.94;46.69;100418.31;7256103;19;153631;-60
2022/11/21 02:10:56;;;;;;;;;;;;;;;20.96;46.42;100414.00;7258554;19;153353;-60
2022/11/21 02:13:24;;;;;;;;;;;;;;;20.94;46.50;100413.50;7256499;19;155038;-60
2022/11/21 02:15:50;;;;;;;;;;;;;;;20.91;46.82;100408.53;7258079;19;153361;-59
2022/11/21 02:18:17;;;;;;;;;;;;;;;20.90;46.56;100406.03;7256768;19;154264;-59
2022/11/21 02:20:47;;;;;;;;;;;;;;;20.89;46.53;100396.81;7255990;19;156613;-60
2022/11/21 02:23:49;;;;;;;;;;;;;;;20.90;46.38;100387.22;7252519;19;152561;-59
2022/11/21 02:26:16;;;;;;;;;;;;;;;20.88;46.51;100385.91;7258295;19;152726;-59
2022/11/21 02:28:43;;;;;;;;;;;;;;;20.83;46.34;100384.91;7253153;19;153307;-59
2022/11/21 02:31:10;;;;;;;;;;;;;;;20.83;46.27;100372.84;7258696;19;153246;-59
2022/11/21 02:33:36;;;;;;;;;;;;;;;20.86;46.49;100380.59;7254267;19;153718;-59
2022/11/21 02:36:04;;;;;;;;;;;;;;;20.84;46.50;100374.50;7256667;19;154366;-60
2022/11/21 02:38:33;;;;;;;;;;;;;;;20.81;46.05;100370.34;7255158;19;154003;-59
2022/11/21 02:41:02;;;;;;;;;;;;;;;20.83;46.33;100367.22;7256785;19;153540;-60
2022/11/21 02:43:35;;;;;;;;;;;;;;;20.81;46.34;100366.69;7267318;19;153949;-60
2022/11/21 02:46:01;;;;;;;;;;;;;;;20.77;46.24;100348.84;7256145;19;154270;-59
2022/11/21 02:48:28;;;;;;;;;;;;;;;20.76;46.31;100352.81;7259554;19;152083;-60
2022/11/21 02:50:55;;;;;;;;;;;;;;;20.72;46.33;100355.44;7256590;19;153937;-60
2022/11/21 02:53:21;;;;;;;;;;;;;;;20.70;46.63;100348.50;7247974;19;154434;-59
2022/11/21 02:55:48;;;;;;;;;;;;;;;20.69;46.53;100342.06;7253605;19;154116;-60
2022/11/21 02:58:15;;;;;;;;;;;;;;;20.65;46.92;100338.25;7257519;19;154248;-59
2022/11/21 03:00:42;;;;;;;;;;;;;;;20.59;46.85;100335.91;7254968;19;156523;-59
2022/11/21 03:03:09;;;;;;;;;;;;;;;20.60;46.96;100343.16;7256664;19;154920;-59
2022/11/21 03:05:36;;;;;;;;;;;;;;;20.56;46.91;100339.34;7254365;19;155352;-59
2022/11/21 03:08:04;;;;;;;;;;;;;;;20.55;47.10;100334.88;7256772;19;153336;-59
2022/11/21 03:10:30;;;;;;;;;;;;;;;20.55;47.08;100326.47;7257043;19;152955;-59
2022/11/21 03:13:00;;;;;;;;;;;;;;;20.51;46.96;100306.66;7253687;19;155315;-59
2022/11/21 03:15:28;;;;;;;;;;;;;;;20.45;47.61;100312.72;7255079;19;152546;-60
2022/11/21 03:17:55;;;;;;;;;;;;;;;20.45;47.51;100304.31;7253618;19;155523;-59
2022/11/21 03:20:22;;;;;;;;;;;;;;;20.43;47.65;100299.03;7255217;19;155511;-59
2022/11/21 03:22:49;;;;;;;;;;;;;;;20.41;47.78;100296.53;7252005;19;154218;-59
2022/11/21 03:25:16;;;;;;;;;;;;;;;20.40;47.85;100294.03;7255557;19;153099;-59
2022/11/21 03:27:43;;;;;;;;;;;;;;;20.37;47.71;100291.91;7253613;19;153452;-59
2022/11/21 03:30:10;;;;;;;;;;;;;;;20.35;48.12;100291.41;7264019;19;152923;-59
2022/11/21 03:32:36;;;;;;;;;;;;;;;20.31;48.25;100288.41;7253118;19;154743;-59
2022/11/21 03:35:03;;;;;;;;;;;;;;;20.31;47.85;100276.34;7254906;19;152392;-58
2022/11/21 03:37:30;;;;;;;;;;;;;;;20.31;47.89;100265.13;7253485;19;155173;-61
2022/11/21 03:39:57;;;;;;;;;;;;;;;20.33;48.05;100248.81;7253404;19;153274;-59
2022/11/21 03:42:23;;;;;;;;;;;;;;;20.32;47.87;100252.75;7250551;19;153891;-58
2022/11/21 03:44:50;;;;;;;;;;;;;;;20.31;48.07;100235.09;7255781;19;154937;-58
2022/11/21 03:47:16;;;;;;;;;;;;;;;20.25;48.08;100225.16;7252885;19;153639;-58
2022/11/21 03:49:43;;;;;;;;;;;;;;;20.27;48.30;100220.03;7256392;19;153936;-58
2022/11/21 03:52:10;;;;;;;;;;;;;;;20.29;48.13;100211.31;7259867;19;153733;-58
2022/11/21 03:54:36;;;;;;;;;;;;;;;20.22;48.36;100196.91;7253578;19;154211;-58
2022/11/21 03:57:03;;;;;;;;;;;;;;;20.21;48.04;100189.66;7251576;19;153926;-58
2022/11/21 03:59:29;;;;;;;;;;;;;;;20.19;48.55;100189.97;7251639;19;153791;-58
2022/11/21 04:01:56;;;;;;;;;;;;;;;20.20;48.09;100179.59;7253557;19;154214;-58
2022/11/21 04:04:23;;;;;;;;;;;;;;;20.18;48.43;100176.28;7253742;19;152534;-58
2022/11/21 04:06:50;;;;;;;;;;;;;;;20.17;48.46;100169.84;7250795;19;154611;-58
2022/11/21 04:09:16;;;;;;;;;;;;;;;20.14;48.64;100167.69;7252811;19;153033;-58
2022/11/21 04:11:43;;;;;;;;;;;;;;;20.15;48.54;100160.09;7253835;19;154172;-59
2022/11/21 04:14:10;;;;;;;;;;;;;;;20.13;48.50;100154.81;7261432;19;153848;-59
2022/11/21 04:16:37;;;;;;;;;;;;;;;20.11;48.29;100145.09;7251267;19;154523;-59
2022/11/21 04:19:03;;;;;;;;;;;;;;;20.10;48.21;100138.66;7252595;19;155893;-59
2022/11/21 04:21:30;;;;;;;;;;;;;;;20.08;48.22;100132.53;7252821;19;153673;-58
2022/11/21 04:23:57;;;;;;;;;;;;;;;20.10;48.21;100123.78;7251706;19;152814;-59
2022/11/21 04:26:23;;;;;;;;;;;;;;;20.07;48.62;100114.06;7252100;19;153596;-59
2022/11/21 04:28:50;;;;;;;;;;;;;;;20.03;48.60;100106.63;7253284;19;153333;-59
2022/11/21 04:31:16;;;;;;;;;;;;;;;20.04;48.57;100102.66;7253171;19;154237;-59
2022/11/21 04:33:43;;;;;;;;;;;;;;;20.03;48.33;100104.66;7252918;19;154576;-59
2022/11/21 04:36:10;;;;;;;;;;;;;;;19.98;48.70;100099.19;7258887;19;154266;-59
2022/11/21 04:38:36;;;;;;;;;;;;;;;19.97;48.54;100103.97;7249021;19;153691;-59
2022/11/21 04:41:03;;;;;;;;;;;;;;;19.96;48.92;100096.72;7254114;19;154373;-58
2022/11/21 04:43:30;;;;;;;;;;;;;;;19.94;48.78;100086.97;7253186;19;152780;-58
2022/11/21 04:45:57;;;;;;;;;;;;;;;19.92;49.10;100066.84;7252452;19;154405;-58
2022/11/21 04:48:23;;;;;;;;;;;;;;;19.94;48.61;100056.94;7254040;19;154035;-58
2022/11/21 04:50:50;;;;;;;;;;;;;;;19.91;48.70;100045.56;7252276;19;154478;-58
2022/11/21 04:53:17;;;;;;;;;;;;;;;19.87;48.93;100038.97;7246408;19;155553;-59
2022/11/21 04:55:43;;;;;;;;;;;;;;;19.89;48.67;100040.31;7258586;19;154061;-59
2022/11/21 04:58:10;;;;;;;;;;;;;;;19.90;48.82;100030.72;7248618;19;155554;-59
2022/11/21 05:00:36;;;;;;;;;;;;;;;19.93;48.71;100034.84;7251768;19;154210;-58
2022/11/21 05:03:04;;;;;;;;;;;;;;;19.90;49.07;100043.91;7250804;19;152418;-59
2022/11/21 05:05:31;;;;;;;;;;;;;;;19.88;49.07;100037.81;7252245;19;152375;-58
2022/11/21 05:07:57;;;;;;;;;;;;;;;19.88;48.79;100035.00;7246628;19;155233;-58
2022/11/21 05:10:24;;;;;;;;;;;;;;;19.89;48.68;100028.25;7253906;19;153851;-59
2022/11/21 05:15:43;;;;;;;;;;;;;;;19.82;49.18;100020.31;7258234;19;153661;-59
2022/11/21 05:18:10;;;;;;;;;;;;;;;19.84;48.67;100012.41;7265714;19;153295;-58
2022/11/21 05:20:37;;;;;;;;;;;;;;;19.83;49.10;99998.72;7259155;19;152867;-58
2022/11/21 05:23:03;;;;;;;;;;;;;;;19.81;48.73;99992.59;7256170;19;153493;-62
2022/11/21 05:25:30;;;;;;;;;;;;;;;19.79;48.96;99990.16;7258720;19;156803;-59
2022/11/21 05:27:57;;;;;;;;;;;;;;;19.81;49.27;99981.38;7258565;19;152168;-59
2022/11/21 05:30:23;;;;;;;;;;;;;;;19.83;49.39;99965.09;7258630;19;153720;-58
2022/11/21 05:32:50;;;;;;;;;;;;;;;19.84;49.56;99953.56;7256964;19;153822;-59
2022/11/21 05:35:17;;;;;;;;;;;;;;;19.88;50.08;99950.91;7259395;19;152462;-59
2022/11/21 05:37:43;;;;;;;;;;;;;;;19.91;50.11;99948.28;7258307;19;154519;-59
2022/11/21 05:40:10;;;;;;;;;;;;;;;19.97;50.16;99946.97;7261729;19;154244;-59
2022/11/21 05:45:26;;;;;;;;;;;;;;;20.06;50.07;99935.75;7258198;19;153458;-59
2022/11/21 05:47:53;;;;;;;;;;;;;;;20.11;50.13;99941.19;7257007;19;153628;-59
2022/11/21 05:50:19;;;;;;;;;;;;;;;20.15;50.59;99932.94;7260704;19;154673;-59
2022/11/21 05:52:46;;;;;;;;;;;;;;;20.17;50.32;99922.22;7258074;19;154208;-59
2022/11/21 05:55:13;;;;;;;;;;;;;;;20.21;50.63;99928.81;7257975;19;153148;-59
2022/11/21 05:57:39;;;;;;;;;;;;;;;20.26;50.56;99925.84;7262487;19;153110;-59
2022/11/21 06:00:06;;;;;;;;;;;;;;;20.29;50.87;99913.97;7257380;19;153099;-59
2022/11/21 06:05:18;;;;;;;;;;;;;;;20.36;50.68;99906.72;7255150;19;154479;-59
2022/11/21 06:07:45;;;;;;;;;;;;;;;20.41;50.60;99898.13;7255056;19;153217;-59
2022/11/21 06:10:12;;;;;;;;;;;;;;;20.46;50.36;99899.09;7255749;19;154410;-59
2022/11/21 06:12:39;;;;;;;;;;;;;;;20.49;50.42;99885.22;7256273;19;153878;-58
2022/11/21 06:15:06;;;;;;;;;;;;;;;20.53;50.29;99866.59;7257601;19;153303;-59
2022/11/21 06:17:32;;;;;;;;;;;;;;;20.58;50.55;99869.19;7258642;19;153958;-59
2022/11/21 06:19:59;;;;;;;;;;;;;;;20.63;50.84;99860.59;7256850;19;154226;-59
2022/11/21 06:22:26;;;;;;;;;;;;;;;20.67;50.60;99855.94;7255632;19;153249;-59
2022/11/21 06:24:52;;;;;;;;;;;;;;;20.73;50.34;99859.38;7262852;19;155447;-59
2022/11/21 06:27:19;;;;;;;;;;;;;;;20.77;50.58;99852.75;7254595;19;152232;-58
2022/11/21 06:29:45;;;;;;;;;;;;;;;20.81;50.60;99842.50;7257823;19;153876;-59
2022/11/21 06:32:12;;;;;;;;;;;;;;;20.84;50.25;99836.25;7255399;19;153478;-59
2022/11/21 06:34:39;;;;;;;;;;;;;;;20.91;50.15;99835.69;7256785;19;153836;-59
2022/11/21 06:37:10;;;;;;;;;;;;;;;20.97;50.07;99833.53;7253613;19;153892;-59
2022/11/21 06:39:37;;;;;;;;;;;;;;;21.01;50.27;99821.28;7255759;19;153689;-60
2022/11/21 06:42:03;;;;;;;;;;;;;;;21.05;50.32;99815.78;7256360;19;153343;-59
2022/11/21 06:44:30;;;;;;;;;;;;;;;21.10;49.86;99807.19;7257943;19;154490;-59
2022/11/21 06:46:57;;;;;;;;;;;;;;;21.14;50.26;99799.75;7262433;19;154542;-59
2022/11/21 06:49:23;;;;;;;;;;;;;;;21.19;49.85;99796.75;7257597;19;153006;-59
2022/11/21 06:51:51;;;;;;;;;;;;;;;21.24;49.99;99796.53;7254165;19;154347;-59
2022/11/21 06:54:18;;;;;;;;;;;;;;;21.27;49.96;99782.63;7255784;19;154124;-58
2022/11/21 06:56:44;;;;;;;;;;;;;;;21.32;49.72;99784.41;7253196;19;154795;-60
2022/11/21 06:59:11;;;;;;;;;;;;;;;21.38;49.72;99779.41;7254581;19;154638;-59
2022/11/21 07:01:37;;;;;;;;;;;;;;;21.41;49.78;99771.13;7255606;19;152993;-59
2022/11/21 07:04:04;;;;;;;;;;;;;;;21.45;49.61;99760.84;7257297;19;153892;-59
2022/11/21 07:06:32;;;;;;;;;;;;;;;21.49;49.41;99744.09;7259615;19;154149;-59
2022/11/21 07:08:59;;;;;;;;;;;;;;;21.53;49.63;99734.63;7251157;19;154012;-59
2022/11/21 07:11:46;;;;;;;;;;;;;;;21.58;49.32;99731.63;7252789;19;156530;-59
2022/11/21 07:14:12;;;;;;;;;;;;;;;21.61;49.18;99730.94;7256006;19;154632;-59
2022/11/21 07:16:39;;;;;;;;;;;;;;;21.65;49.26;99722.63;7251192;19;152671;-59
2022/11/21 07:19:06;;;;;;;;;;;;;;;21.67;48.69;99711.84;7256370;19;154423;-60
2022/11/21 07:21:32;;;;;;;;;;;;;;;21.69;48.69;99715.16;7253167;19;153110;-59
2022/11/21 07:23:59;;;;;;;;;;;;;;;21.58;45.17;99723.19;7254690;19;153389;-59
2022/11/21 07:26:26;;;;;;;;;;;;;;;21.60;45.60;99712.44;7253075;19;153859;-59
2022/11/21 07:28:52;;;;;;;;;;;;;;;21.61;45.54;99702.84;7263701;19;154188;-59
2022/11/21 07:31:19;;;;;;;;;;;;;;;21.62;45.44;99693.22;7253335;19;153094;-59
2022/11/21 07:33:46;;;;;;;;;;;;;;;21.61;45.88;99685.97;7254154;19;154292;-59
2022/11/21 07:36:13;;;;;;;;;;;;;;;21.63;45.96;99682.78;7252263;19;153486;-59
2022/11/21 07:38:40;;;;;;;;;;;;;;;21.63;45.81;99678.00;7251161;19;155259;-59
2022/11/21 07:41:08;;;;;;;;;;;;;;;21.63;45.69;99678.00;7254763;19;153087;-59
2022/11/21 07:43:34;;;;;;;;;;;;;;;21.63;45.91;99672.38;7254890;19;153746;-59
2022/11/21 07:46:01;;;;;;;;;;;;;;;21.65;46.00;99669.22;7253010;19;154019;-59
2022/11/21 07:48:28;;;;;;;;;;;;;;;21.65;46.13;99675.66;7253579;19;154524;-59
2022/11/21 07:50:54;;;;;;;;;;;;;;;21.67;46.06;99670.50;7261243;19;154219;-60
2022/11/21 07:53:21;;;;;;;;;;;;;;;21.69;46.30;99670.16;7251591;19;151992;-60
2022/11/21 07:55:48;;;;;;;;;;;;;;;21.71;46.14;99660.19;7253281;19;153382;-59
2022/11/21 07:58:15;;;;;;;;;;;;;;;21.74;45.83;99651.09;7253526;19;152966;-60
2022/11/21 08:00:42;;;;;;;;;;;;;;;21.77;46.30;99645.94;7254580;19;154067;-59
2022/11/21 08:03:10;;;;;;;;;;;;;;;21.80;46.17;99628.38;7255665;19;154035;-59
2022/11/21 08:05:38;;;;;;;;;;;;;;;21.73;43.06;99629.75;7254142;19;156490;-58
2022/11/21 08:08:05;;;;;;;;;;;;;;;21.64;40.70;99622.59;7249790;19;153244;-58
2022/11/21 08:10:32;;;;;;;;;;;;;;;21.52;40.92;99600.09;7252580;19;154432;-61
2022/11/21 08:12:59;;;;;;;;;;;;;;;21.55;41.79;99605.00;7258458;19;153673;-59
2022/11/21 08:15:26;;;;;;;;;;;;;;;21.61;42.62;99596.03;7255278;19;153248;-58
2022/11/21 08:17:52;;;;;;;;;;;;;;;21.61;42.75;99598.84;7249332;19;154121;-58
2022/11/21 08:20:19;;;;;;;;;;;;;;;21.62;42.61;99580.78;7254537;19;153709;-58
2022/11/21 08:22:46;;;;;;;;;;;;;;;21.65;43.13;99574.47;7249723;19;153438;-59
2022/11/21 08:25:12;;;;;;;;;;;;;;;21.65;42.99;99601.75;7251967;19;155864;-58
2022/11/21 08:27:39;;;;;;;;;;;;;;;21.65;42.92;99607.38;7252958;19;152755;-59
2022/11/21 08:30:06;;;;;;;;;;;;;;;21.64;43.34;99589.69;7253937;19;153874;-59
2022/11/21 08:32:33;;;;;;;;;;;;;;;21.63;43.11;99576.78;7251159;19;155958;-59
2022/11/21 08:35:00;;;;;;;;;;;;;;;21.64;43.05;99583.25;7260234;19;153162;-59
2022/11/21 08:37:28;;;;;;;;;;;;;;;21.63;43.07;99585.22;7247410;19;154755;-58
2022/11/21 08:39:55;;;;;;;;;;;;;;;21.64;42.96;99574.81;7251600;19;153400;-59
2022/11/21 08:42:21;;;;;;;;;;;;;;;21.66;42.96;99572.47;7247363;19;153890;-59
2022/11/21 08:44:48;;;;;;;;;;;;;;;21.69;43.12;99557.72;7251480;19;154074;-58
2022/11/21 08:47:15;;;;;;;;;;;;;;;21.68;43.80;99536.41;7258550;19;153320;-60
2022/11/21 08:49:52;;;;;;;;;;;;;;;21.68;43.75;99516.72;7260422;19;153470;-59
2022/11/21 08:52:34;;;;;;;;;;;;;;;21.66;43.66;99521.88;7254822;19;153520;-59
2022/11/21 08:55:01;;;;;;;;;;;;;;;21.66;44.00;99524.69;7258767;19;153534;-59
2022/11/21 08:57:28;;;;;;;;;;;;;;;21.64;43.96;99519.41;7263013;19;156029;-59
2022/11/21 08:59:54;;;;;;;;;;;;;;;21.64;44.37;99505.38;7259439;19;153111;-59
2022/11/21 09:02:21;;;;;;;;;;;;;;;21.66;44.14;99505.03;7260033;19;154336;-59
2022/11/21 09:04:48;;;;;;;;;;;;;;;21.66;44.14;99502.22;7257601;19;152403;-59
2022/11/21 09:07:15;;;;;;;;;;;;;;;21.67;44.57;99498.19;7258653;19;153889;-59
2022/11/21 09:09:41;;;;;;;;;;;;;;;21.66;44.36;99491.78;7260657;19;153982;-59
2022/11/21 09:12:08;;;;;;;;;;;;;;;21.68;44.51;99491.41;7259356;19;153262;-59
2022/11/21 09:20:05;;;;;;;;;;;;;;;21.62;44.32;99454.28;7257559;19;153757;-59
2022/11/21 09:22:32;;;;;;;;;;;;;;;21.59;44.77;99445.75;7258743;19;154526;-59
2022/11/21 09:24:58;;;;;;;;;;;;;;;21.60;44.58;99442.59;7255945;19;154181;-59
2022/11/21 09:27:25;;;;;;;;;;;;;;;21.59;44.65;99434.50;7257225;19;152821;-59
2022/11/21 09:29:51;;;;;;;;;;;;;;;21.59;44.42;99431.69;7261204;19;154573;-59
2022/11/21 09:32:19;;;;;;;;;;;;;;;21.58;44.77;99428.06;7257746;19;153913;-59
2022/11/21 09:34:47;;;;;;;;;;;;;;;21.56;44.43;99426.78;7257861;19;153651;-59
2022/11/21 09:37:16;;;;;;;;;;;;;;;21.54;44.86;99409.44;7253611;19;153603;-59
2022/11/21 09:39:42;;;;;;;;;;;;;;;21.51;44.64;99405.34;7263869;19;153452;-59
2022/11/21 09:42:18;;;;;;;;;;;;;;;21.51;44.78;99396.94;7258471;19;153991;-59
2022/11/21 09:44:44;;;;;;;;;;;;;;;21.49;44.65;99384.38;7257828;19;154353;-58
2022/11/21 09:47:22;;;;;;;;;;;;;;;21.47;44.66;99376.31;7255986;19;153215;-59
2022/11/21 09:49:52;;;;;;;;;;;;;;;21.45;44.94;99377.84;7257658;19;154421;-58
2022/11/21 09:52:21;;;;;;;;;;;;;;;21.43;44.99;99374.56;7251799;19;152887;-59
2022/11/21 09:54:51;;;;;;;;;;;;;;;21.39;45.06;99379.28;7258032;19;153646;-59
2022/11/21 09:57:20;;;;;;;;;;;;;;;21.38;45.36;99370.00;7251400;19;152766;-60
2022/11/21 09:59:46;;;;;;;;;;;;;;;21.34;45.35;99357.84;7258391;19;153771;-59
2022/11/21 10:02:15;;;;;;;;;;;;;;;21.34;45.31;99348.59;7265435;19;154443;-60
2022/11/21 10:04:42;;;;;;;;;;;;;;;21.31;45.46;99330.44;7257354;19;153771;-60
2022/11/21 10:07:15;;;;;;;;;;;;;;;21.31;45.17;99310.78;7252257;19;154493;-60
2022/11/21 10:09:43;;;;;;;;;;;;;;;21.28;45.66;99292.66;7256417;19;153699;-59
2022/11/21 10:12:38;;;;;;;;;;;;;;;21.27;45.80;99282.56;7257494;19;154131;-60
2022/11/21 10:15:14;;;;;;;;;;;;;;;21.26;45.58;99280.09;7258534;19;153179;-60
2022/11/21 10:17:59;;;;;;;;;;;;;;;21.27;46.06;99273.34;7253896;19;154976;-60
2022/11/21 10:20:45;;;;;;;;;;;;;;;21.23;45.70;99258.34;7256330;19;154008;-60
2022/11/21 10:23:21;;;;;;;;;;;;;;;21.23;45.98;99253.56;7254262;19;153115;-60
2022/11/21 10:25:53;;;;;;;;;;;;;;;21.26;45.75;99249.22;7263554;19;154725;-60
2022/11/21 10:28:28;;;;;;;;;;;;;;;21.26;46.03;99260.44;7257743;19;153498;-59
2022/11/21 10:30:57;;;;;;;;;;;;;;;21.26;46.02;99237.97;7256324;19;152747;-59
2022/11/21 10:33:27;;;;;;;;;;;;;;;21.26;45.82;99227.56;7255850;19;155877;-59
2022/11/21 10:35:56;;;;;;;;;;;;;;;21.28;46.29;99242.09;7257550;19;152943;-59
2022/11/21 10:38:23;;;;;;;;;;;;;;;21.26;45.83;99229.56;7251904;19;153533;-59
2022/11/21 10:41:06;;;;;;;;;;;;;;;21.25;46.32;99222.31;7254068;19;153159;-60
2022/11/21 10:46:27;;;;;;;;;;;;;;;21.23;45.78;99219.03;7256397;19;156773;-59
2022/11/21 10:49:01;;;;;;;;;;;;;;;21.21;45.92;99196.13;7262629;19;154629;-59
2022/11/21 10:51:37;;;;;;;;;;;;;;;21.18;46.35;99186.41;7257468;19;152860;-59
2022/11/21 10:56:55;;;;;;;;;;;;;;;21.15;46.26;99146.97;7253389;19;154308;-60
2022/11/21 10:59:26;;;;;;;;;;;;;;;21.15;46.43;99135.75;7258696;19;154035;-59
2022/11/21 11:02:19;;;;;;;;;;;;;;;21.12;46.41;99114.75;7253906;19;153513;-59
2022/11/21 11:04:46;;;;;;;;;;;;;;;21.10;46.43;99113.50;7255818;19;152633;-59
2022/11/21 11:07:20;;;;;;;;;;;;;;;21.07;46.30;99097.38;7254170;19;154091;-59
2022/11/21 11:09:47;;;;;;;;;;;;;;;21.06;46.34;99078.88;7252119;19;153881;-59
2022/11/21 11:12:19;;;;;;;;;;;;;;;21.04;46.33;99061.56;7260032;19;154359;-59
2022/11/21 11:14:51;;;;;;;;;;;;;;;21.02;46.36;99041.47;7254936;19;153364;-59
2022/11/21 11:17:29;;;;;;;;;;;;;;;21.00;46.77;99039.00;7255209;19;154492;-59
2022/11/21 11:20:00;;;;;;;;;;;;;;;20.92;46.65;99019.50;7252397;19;153707;-58
2022/11/21 11:22:28;;;;;;;;;;;;;;;20.91;47.61;99021.50;7254513;19;154462;-58
2022/11/21 11:24:55;;;;;;;;;;;;;;;20.95;47.28;98999.97;7254486;19;154693;-58
2022/11/21 11:27:27;;;;;;;;;;;;;;;20.90;46.89;98994.59;7253390;19;154189;-58
2022/11/21 11:29:54;;;;;;;;;;;;;;;20.85;47.12;98986.44;7254395;19;155461;-58
2022/11/21 11:32:35;;;;;;;;;;;;;;;20.85;46.67;98981.63;7243473;19;153942;-58
2022/11/21 11:35:24;;;;;;;;;;;;;;;20.82;46.62;98968.31;7241487;19;155942;-59
2022/11/21 11:38:04;;;;;;;;;;;;;;;20.80;46.85;98973.47;7244719;19;153028;-59
2022/11/21 11:40:40;;;;;;;;;;;;;;;20.76;46.68;98958.53;7249795;19;153880;-59
2022/11/21 11:49:17;;;;;;;;;;;;;;;20.72;46.25;98909.09;7249468;19;153030;-58
2022/11/21 11:51:50;;;;;;;;;;;;;;;20.68;46.72;98894.97;7247777;19;153682;-58
2022/11/21 11:54:19;;;;;;;;;;;;;;;20.67;46.66;98887.72;7251921;19;154095;-58
2022/11/21 11:56:46;;;;;;;;;;;;;;;20.63;46.42;98884.00;7256432;19;154598;-59
2022/11/21 11:59:19;;;;;;;;;;;;;;;20.60;46.42;98865.09;7252286;19;152935;-58
2022/11/21 12:01:52;;;;;;;;;;;;;;;20.57;46.71;98857.41;7252269;19;155101;-58
2022/11/21 12:04:20;;;;;;;;;;;;;;;20.57;46.65;98848.97;7251144;19;154520;-61
2022/11/21 12:06:59;;;;;;;;;;;;;;;20.53;46.55;98845.28;7250593;19;153178;-58
2022/11/21 12:09:49;;;;;;;;;;;;;;;20.49;46.50;98840.75;7250446;19;153974;-59
2022/11/21 12:12:27;;;;;;;;;;;;;;;20.50;46.49;98829.13;7249344;19;155194;-59
2022/11/21 12:17:58;;;;;;;;;;;;;;;20.44;46.84;98810.13;7250782;19;153926;-59
2022/11/21 12:20:28;;;;;;;;;;;;;;;20.45;46.99;98800.53;7256710;19;155974;-59
2022/11/21 12:22:55;;;;;;;;;;;;;;;20.42;47.10;98807.69;7248169;19;155048;-59
2022/11/21 12:25:29;;;;;;;;;;;;;;;20.38;47.09;98795.56;7251742;19;154126;-59
2022/11/21 12:27:56;;;;;;;;;;;;;;;20.37;46.83;98772.31;7250866;19;154361;-58
2022/11/21 12:30:45;;;;;;;;;;;;;;;20.36;47.19;98765.06;7253940;19;154135;-59
2022/11/21 12:33:21;;;;;;;;;;;;;;;20.34;46.76;98769.41;7250140;19;154150;-59
2022/11/21 12:35:51;;;;;;;;;;;;;;;20.31;47.23;98744.88;7245169;19;154606;-59
2022/11/21 12:38:20;;;;;;;;;;;;;;;20.28;47.11;98735.19;7247919;19;153245;-59
2022/11/21 12:40:47;;;;;;;;;;;;;;;20.27;47.12;98721.50;7251672;19;154283;-59
2022/11/21 12:43:31;;;;;;;;;;;;;;;20.22;47.01;98714.16;7259112;19;153618;-59
2022/11/21 12:46:13;;;;;;;;;;;;;;;20.21;47.41;98694.94;7250173;19;155356;-59
2022/11/21 12:54:32;;;;;;;;;;;;;;;20.13;47.12;98663.06;7245075;19;153554;-59
2022/11/21 12:57:21;;;;;;;;;;;;;;;20.12;47.33;98658.66;7245132;19;152582;-59
2022/11/21 12:59:57;;;;;;;;;;;;;;;20.09;47.10;98650.13;7244499;19;153475;-59
2022/11/21 13:02:23;;;;;;;;;;;;;;;20.06;47.53;98646.06;7244053;19;154665;-59
2022/11/21 13:04:52;;;;;;;;;;;;;;;20.05;47.18;98632.41;7246581;19;153572;-59
2022/11/21 13:07:21;;;;;;;;;;;;;;;20.02;47.19;98631.16;7251036;19;153872;-59
2022/11/21 13:09:50;;;;;;;;;;;;;;;19.99;47.27;98617.84;7247775;19;153447;-59
2022/11/21 13:12:24;;;;;;;;;;;;;;;19.97;47.37;98615.44;7246078;19;154459;-59
2022/11/21 13:15:03;;;;;;;;;;;;;;;19.93;47.38;98614.53;7244292;19;154469;-59